createdAt,value
2023-05-13T00:01:50.081Z,102225.66
2023-05-13T00:04:16.777Z,102219.25
2023-05-13T00:06:44.560Z,102211.03
2023-05-13T00:09:11.621Z,102220.03
2023-05-13T00:11:38.217Z,102221.72
2023-05-13T00:14:04.757Z,102218.00
2023-05-13T00:16:31.193Z,102215.03
2023-05-13T00:18:57.771Z,102223.34
2023-05-13T00:21:24.370Z,102219.13
2023-05-13T00:23:50.882Z,102223.97
2023-05-13T00:26:17.538Z,102219.03
2023-05-13T00:28:47.106Z,102209.25
2023-05-13T00:31:13.598Z,102220.13
2023-05-13T00:33:40.096Z,102214.91
2023-05-13T00:36:07.708Z,102213.34
2023-05-13T00:38:34.307Z,102215.00
2023-05-13T00:41:02.958Z,102216.72
2023-05-13T00:43:29.790Z,102209.47
2023-05-13T00:45:56.963Z,102211.19
2023-05-13T00:48:25.027Z,102214.44
2023-05-13T00:50:51.632Z,102212.88
2023-05-13T00:53:18.350Z,102223.34
2023-05-13T00:55:46.093Z,102215.91
2023-05-13T00:58:13.764Z,102219.59
2023-05-13T01:01:01.779Z,102219.88
2023-05-13T01:04:09.252Z,102215.53
2023-05-13T01:06:38.388Z,102210.41
2023-05-13T01:09:38.280Z,102218.00
2023-05-13T01:12:10.794Z,102212.00
2023-05-13T01:14:44.363Z,102218.59
2023-05-13T01:17:18.151Z,102212.28
2023-05-13T01:19:49.502Z,102211.41
2023-05-13T01:22:16.533Z,102219.00
2023-05-13T01:24:43.152Z,102203.97
2023-05-13T01:27:10.257Z,102207.84
2023-05-13T01:29:37.655Z,102209.00
2023-05-13T01:32:05.367Z,102206.66
2023-05-13T01:34:34.288Z,102210.66
2023-05-13T01:37:00.983Z,102208.19
2023-05-13T01:39:29.850Z,102205.78
2023-05-13T01:41:59.578Z,102205.78
2023-05-13T01:44:26.843Z,102210.72
2023-05-13T01:46:53.615Z,102209.44
2023-05-13T01:49:20.454Z,102210.66
2023-05-13T01:51:46.952Z,102211.84
2023-05-13T01:54:13.494Z,102210.97
2023-05-13T01:56:45.835Z,102216.06
2023-05-13T01:59:12.568Z,102213.53
2023-05-13T02:01:40.480Z,102221.81
2023-05-13T02:04:07.231Z,102225.78
2023-05-13T02:06:33.829Z,102222.28
2023-05-13T02:09:00.313Z,102221.69
2023-05-13T02:11:26.774Z,102224.59
2023-05-13T02:13:56.482Z,102222.03
2023-05-13T02:16:23.013Z,102223.88
2023-05-13T02:18:49.706Z,102226.59
2023-05-13T02:21:16.201Z,102218.56
2023-05-13T02:23:42.724Z,102223.38
2023-05-13T02:26:09.166Z,102220.22
2023-05-13T02:28:36.918Z,102220.50
2023-05-13T02:31:03.344Z,102231.41
2023-05-13T02:33:29.854Z,102223.66
2023-05-13T02:35:56.759Z,102228.63
2023-05-13T02:38:23.536Z,102227.31
2023-05-13T02:40:50.236Z,102220.22
2023-05-13T02:43:16.779Z,102207.91
2023-05-13T02:45:50.927Z,102219.78
2023-05-13T02:48:17.447Z,102225.28
2023-05-13T02:50:44.705Z,102213.78
2023-05-13T02:53:13.771Z,102221.34
2023-05-13T02:55:45.634Z,102220.66
2023-05-13T02:58:13.072Z,102222.47
2023-05-13T03:00:39.505Z,102220.03
2023-05-13T03:03:06.083Z,102208.44
2023-05-13T03:05:32.639Z,102217.34
2023-05-13T03:07:59.223Z,102213.66
2023-05-13T03:10:25.901Z,102217.34
2023-05-13T03:12:52.380Z,102213.56
2023-05-13T03:15:19.145Z,102205.72
2023-05-13T03:17:45.743Z,102208.44
2023-05-13T03:20:12.503Z,102215.00
2023-05-13T03:22:38.978Z,102210.53
2023-05-13T03:25:06.942Z,102213.50
2023-05-13T03:27:40.577Z,102221.78
2023-05-13T03:30:08.686Z,102219.22
2023-05-13T03:32:42.421Z,102220.25
2023-05-13T03:35:09.190Z,102225.84
2023-05-13T03:37:37.314Z,102224.16
2023-05-13T03:40:05.176Z,102229.56
2023-05-13T03:42:32.207Z,102230.63
2023-05-13T03:45:01.765Z,102229.91
2023-05-13T03:47:28.534Z,102226.34
2023-05-13T03:49:59.792Z,102227.31
2023-05-13T03:52:26.493Z,102226.34
2023-05-13T03:54:53.251Z,102226.25
2023-05-13T03:57:19.673Z,102230.94
2023-05-13T03:59:46.449Z,102221.19
2023-05-13T04:02:13.160Z,102226.69
2023-05-13T04:04:39.726Z,102234.59
2023-05-13T04:07:06.218Z,102236.28
2023-05-13T04:09:32.640Z,102235.22
2023-05-13T04:11:59.075Z,102234.25
2023-05-13T04:14:25.658Z,102243.34
2023-05-13T04:16:52.119Z,102236.91
2023-05-13T04:19:18.589Z,102237.59
2023-05-13T04:21:45.209Z,102236.47
2023-05-13T04:24:11.727Z,102237.19
2023-05-13T04:26:38.735Z,102239.72
2023-05-13T04:29:05.282Z,102243.13
2023-05-13T04:31:31.768Z,102248.34
2023-05-13T04:33:58.260Z,102248.09
2023-05-13T04:36:25.277Z,102249.75
2023-05-13T04:38:52.783Z,102257.59
2023-05-13T04:41:19.215Z,102251.97
2023-05-13T04:43:46.146Z,102258.00
2023-05-13T04:46:12.707Z,102256.94
2023-05-13T04:48:39.140Z,102259.38
2023-05-13T04:51:05.992Z,102266.19
2023-05-13T04:53:32.978Z,102264.88
2023-05-13T04:56:02.258Z,102259.22
2023-05-13T04:58:29.921Z,102266.84
2023-05-13T05:00:57.323Z,102260.28
2023-05-13T05:03:24.600Z,102265.34
2023-05-13T05:05:51.165Z,102260.66
2023-05-13T05:08:18.356Z,102268.50
2023-05-13T05:10:46.742Z,102276.25
2023-05-13T05:13:14.183Z,102273.28
2023-05-13T05:15:41.709Z,102273.81
2023-05-13T05:18:09.856Z,102278.84
2023-05-13T05:20:38.343Z,102286.63
2023-05-13T05:23:08.972Z,102270.09
2023-05-13T05:25:35.722Z,102280.38
2023-05-13T05:28:04.926Z,102277.50
2023-05-13T05:30:39.256Z,102272.00
2023-05-13T05:33:11.048Z,102275.13
2023-05-13T05:35:39.655Z,102277.25
2023-05-13T05:38:09.008Z,102279.31
2023-05-13T05:40:38.825Z,102281.09
2023-05-13T05:43:05.346Z,102288.53
2023-05-13T05:45:31.827Z,102278.97
2023-05-13T05:47:58.475Z,102284.59
2023-05-13T05:50:25.057Z,102280.53
2023-05-13T05:52:51.797Z,102280.66
2023-05-13T05:55:18.526Z,102272.25
2023-05-13T05:57:45.013Z,102280.19
2023-05-13T06:00:12.519Z,102285.34
2023-05-13T06:02:42.514Z,102282.16
2023-05-13T06:05:10.034Z,102283.31
2023-05-13T06:07:38.549Z,102283.34
2023-05-13T06:10:06.417Z,102274.53
2023-05-13T06:12:34.874Z,102272.56
2023-05-13T06:15:01.933Z,102260.78
2023-05-13T06:17:28.389Z,102261.06
2023-05-13T06:19:55.038Z,102268.41
2023-05-13T06:22:21.525Z,102265.66
2023-05-13T06:24:49.004Z,102260.38
2023-05-13T06:27:15.621Z,102260.00
2023-05-13T06:29:43.040Z,102256.50
2023-05-13T06:32:09.570Z,102258.84
2023-05-13T06:34:36.196Z,102248.22
2023-05-13T06:37:04.020Z,102246.66
2023-05-13T06:39:30.533Z,102259.69
2023-05-13T06:41:57.018Z,102252.97
2023-05-13T06:44:29.390Z,102257.28
2023-05-13T06:46:55.942Z,102257.25
2023-05-13T06:49:24.525Z,102259.25
2023-05-13T06:51:51.464Z,102259.16
2023-05-13T06:54:19.550Z,102254.22
2023-05-13T06:56:45.989Z,102252.03
2023-05-13T06:59:15.392Z,102248.44
2023-05-13T07:01:42.288Z,102249.94
2023-05-13T07:04:08.857Z,102247.91
2023-05-13T07:06:37.080Z,102254.56
2023-05-13T07:09:08.166Z,102259.13
2023-05-13T07:11:35.889Z,102254.97
2023-05-13T07:14:02.516Z,102243.75
2023-05-13T07:16:31.640Z,102250.97
2023-05-13T07:18:58.134Z,102256.72
2023-05-13T07:21:24.597Z,102237.13
2023-05-13T07:23:51.041Z,102244.75
2023-05-13T07:26:17.505Z,102245.75
2023-05-13T07:28:43.962Z,102248.41
2023-05-13T07:31:10.624Z,102244.31
2023-05-13T07:33:37.153Z,102247.59
2023-05-13T07:36:03.953Z,102246.69
2023-05-13T07:38:30.745Z,102242.22
2023-05-13T07:40:58.367Z,102247.88
2023-05-13T07:43:24.797Z,102241.66
2023-05-13T07:45:51.532Z,102247.53
2023-05-13T07:48:18.652Z,102252.81
2023-05-13T07:50:46.218Z,102245.47
2023-05-13T07:53:13.357Z,102243.13
2023-05-13T07:55:39.821Z,102241.88
2023-05-13T07:58:06.612Z,102248.22
2023-05-13T08:00:33.390Z,102240.28
2023-05-13T08:02:59.965Z,102240.75
2023-05-13T08:05:26.769Z,102250.41
2023-05-13T08:07:53.252Z,102249.00
2023-05-13T08:10:19.708Z,102248.97
2023-05-13T08:12:50.944Z,102249.41
2023-05-13T08:15:17.685Z,102254.28
2023-05-13T08:17:44.198Z,102258.34
2023-05-13T08:20:11.472Z,102251.25
2023-05-13T08:22:37.900Z,102240.88
2023-05-13T08:25:05.600Z,102244.47
2023-05-13T08:27:32.245Z,102251.19
2023-05-13T08:29:58.659Z,102246.25
2023-05-13T08:32:25.164Z,102250.84
2023-05-13T08:34:54.423Z,102242.13
2023-05-13T08:37:20.974Z,102246.53
2023-05-13T08:39:47.435Z,102238.31
2023-05-13T08:42:19.034Z,102238.28
2023-05-13T08:44:47.064Z,102244.00
2023-05-13T08:47:37.054Z,102239.78
2023-05-13T08:50:03.949Z,102243.47
2023-05-13T08:52:31.549Z,102245.09
2023-05-13T08:55:00.314Z,102235.63
2023-05-13T08:57:27.651Z,102240.03
2023-05-13T08:59:54.089Z,102242.13
2023-05-13T09:02:20.781Z,102241.16
2023-05-13T09:04:52.936Z,102243.84
2023-05-13T09:07:19.518Z,102240.88
2023-05-13T09:09:46.140Z,102239.66
2023-05-13T09:12:12.704Z,102243.75
2023-05-13T09:14:39.888Z,102235.22
2023-05-13T09:17:07.768Z,102236.72
2023-05-13T09:19:35.635Z,102241.81
2023-05-13T09:22:02.633Z,102234.09
2023-05-13T09:24:29.175Z,102240.69
2023-05-13T09:26:55.628Z,102237.19
2023-05-13T09:29:29.045Z,102238.34
2023-05-13T09:32:00.271Z,102235.88
2023-05-13T09:34:32.136Z,102236.72
2023-05-13T09:37:06.864Z,102234.84
2023-05-13T09:39:43.541Z,102236.78
2023-05-13T09:42:19.496Z,102236.28
2023-05-13T09:44:47.163Z,102239.22
2023-05-13T09:47:14.368Z,102231.63
2023-05-13T09:49:41.920Z,102232.13
2023-05-13T09:52:11.580Z,102237.41
2023-05-13T09:54:38.744Z,102232.47
2023-05-13T09:57:05.971Z,102224.94
2023-05-13T09:59:35.560Z,102238.09
2023-05-13T10:02:07.068Z,102234.09
2023-05-13T10:04:34.137Z,102229.47
2023-05-13T10:07:03.596Z,102229.47
2023-05-13T10:09:36.278Z,102228.59
2023-05-13T10:12:06.693Z,102228.25
2023-05-13T10:14:33.401Z,102220.13
2023-05-13T10:17:00.246Z,102214.78
2023-05-13T10:19:27.067Z,102218.09
2023-05-13T10:21:54.191Z,102213.16
2023-05-13T10:24:22.264Z,102212.63
2023-05-13T10:26:52.368Z,102212.00
2023-05-13T10:29:19.418Z,102196.25
2023-05-13T10:31:47.849Z,102197.50
2023-05-13T10:34:14.422Z,102196.16
2023-05-13T10:36:48.180Z,102208.75
2023-05-13T10:39:20.393Z,102197.91
2023-05-13T10:42:34.654Z,102196.16
2023-05-13T10:45:01.455Z,102196.25
2023-05-13T10:47:32.618Z,102192.97
2023-05-13T10:50:04.562Z,102184.56
2023-05-13T10:52:49.492Z,102188.31
2023-05-13T10:55:21.812Z,102179.47
2023-05-13T10:58:08.737Z,102171.66
2023-05-13T11:00:35.861Z,102186.59
2023-05-13T11:03:20.432Z,102182.06
2023-05-13T11:05:59.745Z,102178.72
2023-05-13T11:08:44.487Z,102176.00
2023-05-13T11:11:23.251Z,102172.94
2023-05-13T11:14:19.243Z,102166.09
2023-05-13T11:16:48.380Z,102170.66
2023-05-13T11:19:27.782Z,102176.72
2023-05-13T11:21:56.503Z,102175.22
2023-05-13T11:24:23.696Z,102170.09
2023-05-13T11:26:52.884Z,102167.13
2023-05-13T11:29:33.585Z,102171.75
2023-05-13T11:32:01.886Z,102161.47
2023-05-13T11:34:29.276Z,102163.38
2023-05-13T11:37:10.828Z,102161.75
2023-05-13T11:39:41.398Z,102165.63
2023-05-13T11:42:11.550Z,102161.97
2023-05-13T11:44:46.684Z,102155.38
2023-05-13T11:47:13.240Z,102149.63
2023-05-13T11:49:44.895Z,102153.72
2023-05-13T11:52:12.237Z,102155.25
2023-05-13T11:54:44.677Z,102147.19
2023-05-13T11:57:17.294Z,102145.09
2023-05-13T11:59:55.767Z,102139.28
2023-05-13T12:02:25.741Z,102134.72
2023-05-13T12:04:55.237Z,102144.28
2023-05-13T12:07:25.812Z,102133.09
2023-05-13T12:09:55.316Z,102120.56
2023-05-13T12:12:22.044Z,102142.56
2023-05-13T12:14:52.916Z,102132.03
2023-05-13T12:17:20.671Z,102132.22
2023-05-13T12:20:05.952Z,102130.09
2023-05-13T12:22:33.316Z,102129.53
2023-05-13T12:25:01.773Z,102125.41
2023-05-13T12:27:28.238Z,102124.13
2023-05-13T12:29:55.562Z,102131.66
2023-05-13T12:32:24.468Z,102126.84
2023-05-13T12:34:51.585Z,102131.97
2023-05-13T12:37:18.218Z,102118.34
2023-05-13T12:39:44.783Z,102123.00
2023-05-13T12:42:18.285Z,102122.75
2023-05-13T12:44:45.848Z,102124.72
2023-05-13T12:47:15.220Z,102130.31
2023-05-13T12:49:54.789Z,102125.22
2023-05-13T12:52:21.884Z,102117.69
2023-05-13T12:54:48.457Z,102120.53
2023-05-13T12:57:18.915Z,102114.13
2023-05-13T12:59:45.893Z,102111.84
2023-05-13T13:02:15.780Z,102113.00
2023-05-13T13:04:42.364Z,102110.84
2023-05-13T13:07:12.541Z,102118.56
2023-05-13T13:09:41.254Z,102116.44
2023-05-13T13:12:07.842Z,102117.81
2023-05-13T13:14:34.304Z,102106.25
2023-05-13T13:17:10.032Z,102119.91
2023-05-13T13:19:36.550Z,102120.53
2023-05-13T13:22:03.060Z,102108.56
2023-05-13T13:24:29.670Z,102121.97
2023-05-13T13:27:04.792Z,102112.91
2023-05-13T13:29:31.259Z,102109.81
2023-05-13T13:31:57.827Z,102117.31
2023-05-13T13:34:24.316Z,102105.88
2023-05-13T13:36:50.818Z,102106.81
2023-05-13T13:39:19.291Z,102103.03
2023-05-13T13:41:47.219Z,102098.56
2023-05-13T13:44:13.803Z,102092.72
2023-05-13T13:46:40.352Z,102088.72
2023-05-13T13:49:22.838Z,102106.75
2023-05-13T13:51:51.189Z,102097.25
2023-05-13T13:54:17.634Z,102090.94
2023-05-13T13:56:44.181Z,102087.31
2023-05-13T13:59:10.688Z,102083.91
2023-05-13T14:01:37.353Z,102093.66
2023-05-13T14:04:15.946Z,102086.78
2023-05-13T14:06:42.995Z,102086.41
2023-05-13T14:09:10.518Z,102084.44
2023-05-13T14:11:37.367Z,102086.94
2023-05-13T14:14:04.320Z,102082.13
2023-05-13T14:16:31.095Z,102075.88
2023-05-13T14:18:57.703Z,102083.59
2023-05-13T14:21:24.210Z,102076.16
2023-05-13T14:23:50.738Z,102076.56
2023-05-13T14:26:17.360Z,102075.66
2023-05-13T14:28:44.067Z,102081.41
2023-05-13T14:31:10.545Z,102073.13
2023-05-13T14:33:37.151Z,102075.81
2023-05-13T14:36:04.044Z,102080.88
2023-05-13T14:38:31.380Z,102072.59
2023-05-13T14:40:58.232Z,102068.72
2023-05-13T14:43:24.926Z,102065.09
2023-05-13T14:45:54.600Z,102062.19
2023-05-13T14:48:21.724Z,102064.22
2023-05-13T14:50:48.271Z,102058.72
2023-05-13T14:53:14.922Z,102060.25
2023-05-13T14:55:41.390Z,102053.34
2023-05-13T14:58:10.078Z,102063.00
2023-05-13T15:00:41.444Z,102055.03
2023-05-13T15:03:08.290Z,102061.25
2023-05-13T15:05:35.059Z,102051.06
2023-05-13T15:08:01.550Z,102041.88
2023-05-13T15:10:28.015Z,102047.91
2023-05-13T15:12:54.639Z,102051.25
2023-05-13T15:15:23.237Z,102046.94
2023-05-13T15:17:49.886Z,102034.31
2023-05-13T15:20:16.454Z,102045.72
2023-05-13T15:22:43.898Z,102042.97
2023-05-13T15:25:10.760Z,102044.03
2023-05-13T15:27:37.239Z,102039.38
2023-05-13T15:30:03.986Z,102033.25
2023-05-13T15:32:30.498Z,102038.88
2023-05-13T15:34:57.075Z,102037.38
2023-05-13T15:37:23.511Z,102027.41
2023-05-13T15:39:49.994Z,102036.03
2023-05-13T15:42:17.521Z,102024.84
2023-05-13T15:44:45.513Z,102037.66
2023-05-13T15:47:12.675Z,102023.53
2023-05-13T15:49:39.150Z,102026.78
2023-05-13T15:52:07.188Z,102032.72
2023-05-13T15:54:34.385Z,102033.69
2023-05-13T15:57:00.992Z,102027.00
2023-05-13T15:59:27.460Z,102022.28
2023-05-13T16:01:54.087Z,102030.31
2023-05-13T16:04:20.762Z,102014.88
2023-05-13T16:06:47.413Z,102021.94
2023-05-13T16:09:13.897Z,102016.78
2023-05-13T16:11:40.350Z,102014.41
2023-05-13T16:14:08.566Z,102009.66
2023-05-13T16:16:35.123Z,102004.47
2023-05-13T16:19:03.545Z,102016.88
2023-05-13T16:21:31.570Z,102004.81
2023-05-13T16:23:58.173Z,102001.88
2023-05-13T16:26:24.717Z,102005.34
2023-05-13T16:28:51.625Z,102023.22
2023-05-13T16:31:18.148Z,102014.34
2023-05-13T16:33:44.608Z,102013.50
2023-05-13T16:36:11.903Z,102013.50
2023-05-13T16:38:41.219Z,102012.97
2023-05-13T16:41:07.986Z,102010.22
2023-05-13T16:43:34.428Z,102012.81
2023-05-13T16:46:01.076Z,102019.84
2023-05-13T16:48:27.627Z,102015.22
2023-05-13T16:50:54.269Z,102010.38
2023-05-13T16:53:23.275Z,102007.44
2023-05-13T16:55:50.214Z,102010.50
2023-05-13T16:58:16.995Z,102009.84
2023-05-13T17:00:43.964Z,102009.13
2023-05-13T17:03:13.186Z,102003.00
2023-05-13T17:05:39.854Z,102005.31
2023-05-13T17:08:06.320Z,101999.47
2023-05-13T17:10:32.852Z,102014.53
2023-05-13T17:12:59.327Z,102009.88
2023-05-13T17:15:26.182Z,102019.31
2023-05-13T17:17:52.721Z,102013.69
2023-05-13T17:20:20.522Z,102015.19
2023-05-13T17:22:47.508Z,102010.00
2023-05-13T17:25:14.601Z,102004.44
2023-05-13T17:27:41.257Z,102009.47
2023-05-13T17:30:08.566Z,102007.34
2023-05-13T17:32:35.521Z,102008.06
2023-05-13T17:35:02.957Z,102008.69
2023-05-13T17:37:29.482Z,102012.38
2023-05-13T17:39:57.529Z,102010.81
2023-05-13T17:42:23.954Z,102016.69
2023-05-13T17:44:50.514Z,102007.13
2023-05-13T17:47:17.115Z,102010.94
2023-05-13T17:49:43.564Z,102019.97
2023-05-13T17:52:09.993Z,102009.84
2023-05-13T17:54:36.946Z,102025.03
2023-05-13T17:57:03.623Z,102026.28
2023-05-13T17:59:30.097Z,102024.59
2023-05-13T18:01:56.506Z,102022.47
2023-05-13T18:04:22.901Z,102024.09
2023-05-13T18:06:49.929Z,102028.00
2023-05-13T18:09:16.543Z,102022.84
2023-05-13T18:11:43.069Z,102031.38
2023-05-13T18:14:09.507Z,102030.94
2023-05-13T18:16:36.007Z,102029.94
2023-05-13T18:19:02.488Z,102039.75
2023-05-13T18:21:29.209Z,102032.00
2023-05-13T18:23:56.070Z,102035.31
2023-05-13T18:26:23.478Z,102034.47
2023-05-13T18:28:50.004Z,102029.69
2023-05-13T18:31:16.659Z,102044.53
2023-05-13T18:33:43.284Z,102046.00
2023-05-13T18:36:10.325Z,102041.94
2023-05-13T18:38:36.959Z,102054.19
2023-05-13T18:41:03.645Z,102055.50
2023-05-13T18:43:30.491Z,102063.53
2023-05-13T18:45:57.853Z,102061.63
2023-05-13T18:48:24.983Z,102065.91
2023-05-13T18:50:53.008Z,102068.63
2023-05-13T18:53:19.897Z,102073.53
2023-05-13T18:55:46.519Z,102066.03
2023-05-13T18:58:13.753Z,102071.59
2023-05-13T19:00:40.207Z,102069.59
2023-05-13T19:03:06.842Z,102077.34
2023-05-13T19:05:33.556Z,102068.34
2023-05-13T19:08:00.509Z,102070.19
2023-05-13T19:10:27.281Z,102077.19
2023-05-13T19:12:53.772Z,102068.03
2023-05-13T19:15:25.238Z,102070.16
2023-05-13T19:17:52.466Z,102071.00
2023-05-13T19:20:18.992Z,102088.06
2023-05-13T19:22:45.492Z,102081.38
2023-05-13T19:25:11.972Z,102086.50
2023-05-13T19:27:38.884Z,102090.66
2023-05-13T19:30:06.352Z,102090.56
2023-05-13T19:32:36.069Z,102097.81
2023-05-13T19:35:03.655Z,102095.22
2023-05-13T19:37:30.920Z,102101.09
2023-05-13T19:39:57.461Z,102099.59
2023-05-13T19:42:23.931Z,102100.88
2023-05-13T19:44:50.455Z,102103.50
2023-05-13T19:47:16.994Z,102096.31
2023-05-13T19:49:43.415Z,102100.03
2023-05-13T19:52:09.913Z,102097.56
2023-05-13T19:54:36.484Z,102099.31
2023-05-13T19:57:03.064Z,102103.41
2023-05-13T19:59:29.726Z,102104.69
2023-05-13T20:01:56.224Z,102103.44
2023-05-13T20:04:22.754Z,102105.44
2023-05-13T20:06:49.289Z,102111.28
2023-05-13T20:09:15.789Z,102109.16
2023-05-13T20:11:42.307Z,102109.41
2023-05-13T20:14:08.838Z,102113.53
2023-05-13T20:16:35.921Z,102114.88
2023-05-13T20:19:02.412Z,102119.47
2023-05-13T20:21:29.149Z,102128.03
2023-05-13T20:23:56.436Z,102125.31
2023-05-13T20:26:25.832Z,102121.84
2023-05-13T20:28:52.732Z,102121.47
2023-05-13T20:31:19.240Z,102129.47
2023-05-13T20:33:45.765Z,102125.13
2023-05-13T20:36:12.289Z,102130.19
2023-05-13T20:38:38.824Z,102126.09
2023-05-13T20:41:05.539Z,102130.03
2023-05-13T20:43:34.591Z,102137.81
2023-05-13T20:46:02.671Z,102125.44
2023-05-13T20:48:31.906Z,102129.63
2023-05-13T20:50:59.396Z,102126.63
2023-05-13T20:53:25.899Z,102133.66
2023-05-13T20:55:52.437Z,102134.03
2023-05-13T20:58:18.895Z,102137.81
2023-05-13T21:00:45.369Z,102131.75
2023-05-13T21:03:12.125Z,102128.25
2023-05-13T21:05:38.610Z,102133.56
2023-05-13T21:08:05.064Z,102132.69
2023-05-13T21:10:31.478Z,102131.19
2023-05-13T21:12:57.915Z,102135.75
2023-05-13T21:15:24.485Z,102127.84
2023-05-13T21:17:50.962Z,102127.94
2023-05-13T21:20:17.594Z,102126.31
2023-05-13T21:22:44.079Z,102128.41
2023-05-13T21:25:10.704Z,102129.00
2023-05-13T21:27:37.196Z,102135.44
2023-05-13T21:30:04.655Z,102132.19
2023-05-13T21:32:31.370Z,102126.94
2023-05-13T21:34:57.856Z,102136.19
2023-05-13T21:37:25.528Z,102138.16
2023-05-13T21:39:52.075Z,102134.03
2023-05-13T21:42:18.766Z,102129.94
2023-05-13T21:44:45.375Z,102137.56
2023-05-13T21:47:11.852Z,102133.19
2023-05-13T21:49:38.336Z,102132.78
2023-05-13T21:52:05.662Z,102129.31
2023-05-13T21:54:32.107Z,102124.09
2023-05-13T21:56:58.568Z,102123.78
2023-05-13T21:59:25.045Z,102128.34
2023-05-13T22:01:51.551Z,102126.97
2023-05-13T22:04:18.067Z,102131.13
2023-05-13T22:06:44.596Z,102126.53
2023-05-13T22:09:11.135Z,102125.97
2023-05-13T22:11:37.557Z,102135.03
2023-05-13T22:14:04.033Z,102130.03
2023-05-13T22:16:30.709Z,102133.19
2023-05-13T22:18:59.913Z,102139.59
2023-05-13T22:21:26.766Z,102131.69
2023-05-13T22:23:53.253Z,102135.03
2023-05-13T22:26:19.707Z,102135.59
2023-05-13T22:28:48.423Z,102137.56
2023-05-13T22:31:16.543Z,102124.41
2023-05-13T22:33:44.251Z,102126.47
2023-05-13T22:36:11.789Z,102128.66
2023-05-13T22:38:38.803Z,102118.97
2023-05-13T22:41:05.843Z,102122.09
2023-05-13T22:43:32.754Z,102114.22
2023-05-13T22:45:59.269Z,102110.13
2023-05-13T22:48:26.648Z,102113.78
2023-05-13T22:50:54.116Z,102110.75
2023-05-13T22:53:20.653Z,102112.69
2023-05-13T22:55:47.147Z,102118.44
2023-05-13T22:58:13.572Z,102118.78
2023-05-13T23:00:40.116Z,102118.22
2023-05-13T23:03:06.543Z,102114.06
2023-05-13T23:05:33.029Z,102114.06
2023-05-13T23:07:59.618Z,102109.94
2023-05-13T23:10:26.038Z,102118.38
2023-05-13T23:12:52.650Z,102120.53
2023-05-13T23:15:19.041Z,102124.34
2023-05-13T23:17:45.700Z,102120.31
2023-05-13T23:20:12.353Z,102112.28
2023-05-13T23:22:38.932Z,102118.66
2023-05-13T23:25:06.700Z,102107.91
2023-05-13T23:27:33.174Z,102115.47
2023-05-13T23:29:59.596Z,102111.25
2023-05-13T23:32:26.110Z,102110.47
2023-05-13T23:34:52.655Z,102108.38
2023-05-13T23:37:20.066Z,102113.78
2023-05-13T23:39:46.522Z,102110.50
2023-05-13T23:42:12.971Z,102105.31
2023-05-13T23:44:39.530Z,102107.25
2023-05-13T23:47:06.034Z,102098.44
2023-05-13T23:49:32.484Z,102102.22
2023-05-13T23:51:58.957Z,102109.59
2023-05-13T23:54:25.488Z,102108.03
2023-05-13T23:56:51.882Z,102102.06
2023-05-13T23:59:18.337Z,102105.94
